Time;durP1;ratioP1;P1;durP2;ratioP2;P2;SDS_P1;SDS_P2;PMS_P1;PMS_P2;Temp;Humidity;BMP_temperature;BMP_pressure;BME280_temperature;BME280_humidity;BME280_pressure;Samples;Min_cycle;Max_cycle;Signal;HPM_P1;HPM_P2
2021/12/12 00:00:31;;;;;;;36.87;11.83;;;;;;;;;;5071950;28;20184;-73
2021/12/12 00:03:03;;;;;;;14.47;9.03;;;;;;;;;;5035739;28;20212;-74
2021/12/12 00:05:40;;;;;;;16.97;8.97;;;;;;;;;;5055212;28;20181;-74
2021/12/12 00:08:06;;;;;;;17.40;9.33;;;;;;;;;;5074707;28;20195;-73
2021/12/12 00:10:33;;;;;;;18.67;9.97;;;;;;;;;;5081794;28;20291;-74
2021/12/12 00:13:00;;;;;;;18.63;8.70;;;;;;;;;;5074716;28;20569;-74
2021/12/12 00:15:26;;;;;;;30.30;10.83;;;;;;;;;;5054536;28;20554;-76
2021/12/12 00:17:51;;;;;;;17.60;8.80;;;;;;;;;;5073219;28;20176;-75
2021/12/12 00:20:18;;;;;;;23.00;9.97;;;;;;;;;;5068481;28;20220;-74
2021/12/12 00:22:43;;;;;;;16.80;9.87;;;;;;;;;;5083137;28;20196;-73
2021/12/12 00:25:09;;;;;;;17.80;9.97;;;;;;;;;;5060475;28;20184;-74
2021/12/12 00:27:34;;;;;;;24.60;9.23;;;;;;;;;;5079003;28;20184;-74
2021/12/12 00:30:03;;;;;;;19.80;9.80;;;;;;;;;;5069601;28;20208;-77
2021/12/12 00:32:28;;;;;;;18.97;8.93;;;;;;;;;;5072038;28;20232;-74
2021/12/12 00:34:57;;;;;;;16.67;9.30;;;;;;;;;;5067631;28;20212;-75
2021/12/12 00:37:22;;;;;;;19.07;9.20;;;;;;;;;;5075085;28;20176;-75
2021/12/12 00:39:50;;;;;;;18.43;9.23;;;;;;;;;;5069725;28;20181;-75
2021/12/12 00:42:26;;;;;;;26.43;9.13;;;;;;;;;;5088200;28;20253;-75
2021/12/12 00:44:53;;;;;;;15.03;9.27;;;;;;;;;;5069717;28;20650;-75
2021/12/12 00:47:19;;;;;;;16.27;8.57;;;;;;;;;;5060564;28;20219;-75
2021/12/12 00:49:44;;;;;;;24.83;9.50;;;;;;;;;;5067837;28;20227;-75
2021/12/12 00:52:11;;;;;;;22.77;9.93;;;;;;;;;;5073430;28;20261;-75
2021/12/12 00:54:37;;;;;;;20.10;9.23;;;;;;;;;;5060970;28;20203;-75
2021/12/12 00:57:07;;;;;;;24.47;10.47;;;;;;;;;;5061437;28;20204;-75
2021/12/12 00:59:33;;;;;;;21.43;10.00;;;;;;;;;;5054296;28;20181;-75
2021/12/12 01:01:59;;;;;;;19.50;8.87;;;;;;;;;;5082309;28;20680;-75
2021/12/12 01:04:27;;;;;;;20.27;8.70;;;;;;;;;;5061112;28;20177;-74
2021/12/12 01:06:54;;;;;;;19.67;8.47;;;;;;;;;;5054706;28;20706;-77
2021/12/12 01:09:25;;;;;;;15.37;8.00;;;;;;;;;;5067934;28;20208;-74
2021/12/12 01:11:52;;;;;;;16.47;9.13;;;;;;;;;;5068807;28;20211;-74
2021/12/12 01:14:20;;;;;;;23.40;9.77;;;;;;;;;;5063280;28;20204;-75
2021/12/12 01:16:50;;;;;;;21.53;9.77;;;;;;;;;;5067255;28;20185;-75
2021/12/12 01:19:19;;;;;;;14.17;7.40;;;;;;;;;;5077052;28;20272;-75
2021/12/12 01:21:48;;;;;;;21.03;8.70;;;;;;;;;;5074631;28;20212;-75
2021/12/12 01:24:19;;;;;;;22.37;8.57;;;;;;;;;;5052334;28;20192;-75
2021/12/12 01:26:46;;;;;;;17.23;7.67;;;;;;;;;;5069101;28;20180;-75
2021/12/12 01:29:11;;;;;;;21.90;9.13;;;;;;;;;;5051713;28;20678;-76
2021/12/12 01:31:45;;;;;;;21.77;9.00;;;;;;;;;;5070190;28;20291;-74
2021/12/12 01:34:12;;;;;;;16.40;8.03;;;;;;;;;;5053158;28;20206;-74
2021/12/12 01:37:04;;;;;;;17.77;8.97;;;;;;;;;;5070539;28;20246;-75
2021/12/12 01:39:33;;;;;;;18.87;8.60;;;;;;;;;;5077484;28;20662;-74
2021/12/12 01:42:01;;;;;;;16.30;6.87;;;;;;;;;;5052512;28;20688;-74
2021/12/12 01:44:40;;;;;;;17.53;8.30;;;;;;;;;;5074417;28;20652;-74
2021/12/12 01:47:18;;;;;;;17.90;8.00;;;;;;;;;;5076391;28;20299;-75
2021/12/12 01:49:45;;;;;;;14.83;7.60;;;;;;;;;;5065419;28;20297;-75
2021/12/12 01:52:12;;;;;;;14.73;8.73;;;;;;;;;;5055854;28;20200;-75
2021/12/12 01:54:45;;;;;;;20.60;7.97;;;;;;;;;;5052523;28;20184;-76
2021/12/12 01:57:30;;;;;;;22.57;7.73;;;;;;;;;;5072227;28;20196;-75
2021/12/12 01:59:57;;;;;;;17.50;8.00;;;;;;;;;;5047226;28;20181;-76
2021/12/12 02:02:25;;;;;;;17.20;7.13;;;;;;;;;;5077752;28;20278;-76
2021/12/12 02:04:52;;;;;;;16.27;8.23;;;;;;;;;;5064770;28;20200;-76
2021/12/12 02:07:19;;;;;;;22.10;8.23;;;;;;;;;;5067618;28;20688;-75
2021/12/12 02:09:45;;;;;;;15.47;7.10;;;;;;;;;;5066746;28;20204;-76
2021/12/12 02:12:10;;;;;;;15.37;7.03;;;;;;;;;;5071678;28;20200;-76
2021/12/12 02:14:37;;;;;;;21.40;8.17;;;;;;;;;;5072166;28;20184;-76
2021/12/12 02:17:11;;;;;;;15.83;7.10;;;;;;;;;;5072258;28;20227;-76
2021/12/12 02:19:48;;;;;;;18.80;7.47;;;;;;;;;;5067240;28;20176;-76
2021/12/12 02:35:55;;;;;;;17.80;6.87;;;;;;;;;;5073737;28;20237;-75
2021/12/12 02:38:22;;;;;;;14.97;7.43;;;;;;;;;;5054728;28;20557;-75
2021/12/12 02:40:56;;;;;;;19.93;8.93;;;;;;;;;;5060774;28;20231;-76
2021/12/12 02:43:23;;;;;;;14.37;7.57;;;;;;;;;;5076239;28;20221;-75
2021/12/12 02:45:51;;;;;;;27.30;10.40;;;;;;;;;;5074539;28;20188;-75
2021/12/12 02:48:19;;;;;;;20.03;9.80;;;;;;;;;;5088157;28;20172;-75
2021/12/12 02:50:47;;;;;;;21.47;9.47;;;;;;;;;;5053830;28;20186;-75
2021/12/12 02:53:15;;;;;;;20.43;9.43;;;;;;;;;;5086712;28;20207;-75
2021/12/12 02:55:43;;;;;;;17.73;9.17;;;;;;;;;;5066723;28;20185;-76
2021/12/12 02:58:13;;;;;;;22.73;10.27;;;;;;;;;;5073273;28;20212;-75
2021/12/12 03:00:43;;;;;;;16.70;9.77;;;;;;;;;;5066239;28;20703;-75
2021/12/12 03:03:09;;;;;;;18.33;9.63;;;;;;;;;;5071391;28;20194;-75
2021/12/12 03:05:36;;;;;;;24.30;10.93;;;;;;;;;;5054386;28;20187;-76
2021/12/12 03:08:01;;;;;;;27.27;12.77;;;;;;;;;;5074027;28;20171;-76
2021/12/12 03:10:29;;;;;;;17.93;11.13;;;;;;;;;;5073552;28;20216;-75
2021/12/12 03:12:54;;;;;;;18.93;11.17;;;;;;;;;;5070038;28;20288;-76
2021/12/12 03:15:23;;;;;;;24.17;11.10;;;;;;;;;;5072175;28;20651;-76
2021/12/12 03:17:49;;;;;;;22.60;12.50;;;;;;;;;;5072819;28;20177;-76
2021/12/12 03:20:24;;;;;;;18.20;12.03;;;;;;;;;;5074524;28;20250;-75
2021/12/12 03:22:54;;;;;;;20.80;12.10;;;;;;;;;;5078485;28;20632;-77
2021/12/12 03:25:19;;;;;;;20.80;10.97;;;;;;;;;;5061749;28;20181;-75
2021/12/12 03:27:44;;;;;;;22.93;11.90;;;;;;;;;;5075591;28;20550;-75
2021/12/12 03:30:10;;;;;;;20.83;11.83;;;;;;;;;;5077149;28;20606;-75
2021/12/12 03:32:35;;;;;;;24.57;12.73;;;;;;;;;;5076083;28;20204;-75
2021/12/12 03:35:01;;;;;;;19.30;12.60;;;;;;;;;;5055632;28;20264;-78
2021/12/12 03:37:28;;;;;;;22.80;13.30;;;;;;;;;;5065161;28;20187;-75
2021/12/12 03:39:54;;;;;;;17.13;12.77;;;;;;;;;;5055989;28;20181;-75
2021/12/12 03:42:22;;;;;;;17.63;13.30;;;;;;;;;;5067196;28;20266;-75
2021/12/12 03:44:48;;;;;;;23.30;14.87;;;;;;;;;;5048070;28;20189;-76
2021/12/12 03:47:13;;;;;;;17.83;13.10;;;;;;;;;;5066683;28;20188;-75
2021/12/12 03:49:39;;;;;;;24.00;14.90;;;;;;;;;;5074665;28;20204;-75
2021/12/12 03:52:08;;;;;;;24.53;14.40;;;;;;;;;;5077353;28;20693;-75
2021/12/12 03:54:33;;;;;;;22.70;14.73;;;;;;;;;;5055666;28;20181;-75
2021/12/12 03:56:59;;;;;;;23.77;15.10;;;;;;;;;;5071758;28;20656;-74
2021/12/12 03:59:25;;;;;;;19.27;14.97;;;;;;;;;;5051234;28;20181;-75
2021/12/12 04:01:51;;;;;;;23.60;15.67;;;;;;;;;;5070614;28;20223;-76
2021/12/12 04:04:36;;;;;;;24.30;15.47;;;;;;;;;;5070103;28;20264;-76
2021/12/12 04:07:05;;;;;;;20.93;16.07;;;;;;;;;;5055882;28;20215;-76
2021/12/12 04:09:30;;;;;;;23.30;16.03;;;;;;;;;;5056655;28;20236;-75
2021/12/12 04:11:57;;;;;;;20.73;16.27;;;;;;;;;;5071602;28;20236;-79
2021/12/12 04:14:23;;;;;;;21.17;17.13;;;;;;;;;;5071733;28;20230;-75
2021/12/12 04:16:51;;;;;;;25.67;17.93;;;;;;;;;;5070340;28;20185;-74
2021/12/12 04:19:16;;;;;;;24.03;17.10;;;;;;;;;;5081937;28;20185;-76
2021/12/12 04:21:41;;;;;;;20.47;16.67;;;;;;;;;;5075265;28;20197;-75
2021/12/12 04:24:07;;;;;;;23.13;17.93;;;;;;;;;;5057076;28;20177;-74
2021/12/12 04:26:37;;;;;;;29.40;17.90;;;;;;;;;;5069164;28;20176;-76
2021/12/12 04:29:07;;;;;;;26.63;18.13;;;;;;;;;;5071086;28;20207;-76
2021/12/12 04:31:33;;;;;;;24.13;18.13;;;;;;;;;;5065640;28;20208;-75
2021/12/12 04:33:59;;;;;;;26.63;17.90;;;;;;;;;;5074088;28;20261;-75
2021/12/12 04:36:33;;;;;;;22.83;18.43;;;;;;;;;;5070567;28;20184;-75
2021/12/12 04:39:18;;;;;;;24.13;18.00;;;;;;;;;;5076371;28;20657;-75
2021/12/12 04:41:44;;;;;;;27.97;18.70;;;;;;;;;;5069564;28;20220;-76
2021/12/12 04:44:10;;;;;;;27.77;19.53;;;;;;;;;;5052814;28;20184;-76
2021/12/12 04:49:55;;;;;;;28.63;20.23;;;;;;;;;;5030731;28;20218;-76
2021/12/12 04:52:23;;;;;;;28.90;20.90;;;;;;;;;;5071854;28;20283;-76
2021/12/12 04:54:53;;;;;;;37.80;21.90;;;;;;;;;;5072584;28;20665;-76
2021/12/12 04:57:20;;;;;;;33.17;22.17;;;;;;;;;;5059299;28;20185;-75
2021/12/12 04:59:48;;;;;;;38.17;24.27;;;;;;;;;;5066882;28;20181;-75
2021/12/12 05:02:19;;;;;;;36.27;23.47;;;;;;;;;;5051568;28;20204;-75
2021/12/12 05:04:56;;;;;;;34.37;22.83;;;;;;;;;;5067767;28;20232;-76
2021/12/12 05:07:22;;;;;;;32.13;21.00;;;;;;;;;;5051354;28;20192;-76
2021/12/12 05:09:50;;;;;;;31.00;21.50;;;;;;;;;;5071976;28;20204;-76
2021/12/12 05:12:31;;;;;;;30.70;22.57;;;;;;;;;;5057221;28;20230;-76
2021/12/12 05:15:01;;;;;;;32.53;23.33;;;;;;;;;;5069623;28;20184;-75
2021/12/12 05:17:33;;;;;;;36.13;23.87;;;;;;;;;;5069533;28;20183;-75
2021/12/12 05:20:00;;;;;;;33.93;24.53;;;;;;;;;;5068274;28;20376;-75
2021/12/12 05:22:32;;;;;;;33.00;23.73;;;;;;;;;;5073407;28;20204;-76
2021/12/12 05:24:58;;;;;;;39.73;26.50;;;;;;;;;;5074312;28;20271;-75
2021/12/12 05:27:24;;;;;;;37.17;25.07;;;;;;;;;;5065166;28;20188;-76
2021/12/12 05:29:54;;;;;;;35.97;24.57;;;;;;;;;;5071047;28;20208;-76
2021/12/12 05:32:20;;;;;;;44.50;25.87;;;;;;;;;;5068766;28;20304;-77
2021/12/12 05:34:49;;;;;;;44.67;26.43;;;;;;;;;;5065134;28;20304;-76
2021/12/12 05:37:14;;;;;;;38.07;26.10;;;;;;;;;;5067679;28;20208;-76
2021/12/12 05:39:40;;;;;;;41.90;26.23;;;;;;;;;;5062527;28;20256;-76
2021/12/12 05:42:05;;;;;;;39.67;27.13;;;;;;;;;;5044566;28;20637;-75
2021/12/12 05:44:31;;;;;;;37.20;25.47;;;;;;;;;;5056142;28;20192;-74
2021/12/12 05:47:01;;;;;;;41.27;26.00;;;;;;;;;;5049357;28;20606;-76
2021/12/12 05:49:26;;;;;;;36.60;24.70;;;;;;;;;;5070042;28;20295;-76
2021/12/12 05:51:52;;;;;;;43.80;28.43;;;;;;;;;;5054525;28;20275;-76
2021/12/12 05:54:17;;;;;;;38.07;24.57;;;;;;;;;;5065057;28;20227;-76
2021/12/12 05:56:43;;;;;;;42.93;27.13;;;;;;;;;;5070132;28;20211;-75
2021/12/12 05:59:09;;;;;;;38.77;25.03;;;;;;;;;;5051632;28;20243;-75
2021/12/12 06:01:35;;;;;;;47.37;27.50;;;;;;;;;;5070145;28;20216;-75
2021/12/12 06:04:00;;;;;;;45.53;27.20;;;;;;;;;;5068968;28;20189;-76
2021/12/12 06:06:28;;;;;;;42.50;27.90;;;;;;;;;;5077979;28;20271;-77
2021/12/12 06:08:56;;;;;;;43.53;28.17;;;;;;;;;;5072327;28;20261;-77
2021/12/12 06:11:23;;;;;;;43.70;29.20;;;;;;;;;;5067388;28;20227;-76
2021/12/12 06:13:48;;;;;;;47.03;28.53;;;;;;;;;;5069454;28;20613;-77
2021/12/12 06:16:19;;;;;;;42.13;26.93;;;;;;;;;;5050153;28;20208;-77
2021/12/12 06:18:45;;;;;;;47.47;30.07;;;;;;;;;;5051057;28;20177;-76
2021/12/12 06:21:11;;;;;;;44.43;28.37;;;;;;;;;;5070677;28;20564;-77
2021/12/12 06:23:36;;;;;;;45.20;27.13;;;;;;;;;;5067448;28;20179;-75
2021/12/12 06:26:01;;;;;;;48.73;29.03;;;;;;;;;;5050754;28;20180;-76
2021/12/12 06:28:31;;;;;;;42.10;27.90;;;;;;;;;;5076061;28;20172;-77
2021/12/12 06:30:57;;;;;;;47.30;28.30;;;;;;;;;;5049795;28;20201;-77
2021/12/12 06:33:23;;;;;;;48.00;28.57;;;;;;;;;;5068416;28;20239;-77
2021/12/12 06:35:48;;;;;;;46.57;27.60;;;;;;;;;;5067021;28;20556;-76
2021/12/12 06:38:14;;;;;;;48.27;27.00;;;;;;;;;;5077955;28;20181;-76
2021/12/12 06:40:40;;;;;;;53.90;30.50;;;;;;;;;;5051725;28;20246;-74
2021/12/12 06:43:06;;;;;;;62.70;29.87;;;;;;;;;;5075474;28;20250;-77
2021/12/12 06:45:32;;;;;;;52.23;27.27;;;;;;;;;;5070770;28;20173;-76
2021/12/12 06:47:59;;;;;;;56.20;29.97;;;;;;;;;;5058601;28;20184;-76
2021/12/12 06:50:25;;;;;;;48.33;29.27;;;;;;;;;;5052353;28;20205;-76
2021/12/12 06:52:51;;;;;;;53.90;30.93;;;;;;;;;;5063445;28;20224;-77
2021/12/12 06:55:17;;;;;;;57.03;29.87;;;;;;;;;;5065568;28;20165;-76
2021/12/12 06:57:42;;;;;;;56.57;28.73;;;;;;;;;;5067123;28;20699;-77
2021/12/12 07:00:09;;;;;;;53.80;29.03;;;;;;;;;;5083374;28;20639;-75
2021/12/12 07:02:35;;;;;;;58.00;30.57;;;;;;;;;;5066700;28;20250;-77
2021/12/12 07:05:00;;;;;;;65.47;31.13;;;;;;;;;;5058491;28;20184;-76
2021/12/12 07:07:26;;;;;;;54.77;29.47;;;;;;;;;;5049451;28;20188;-76
2021/12/12 07:09:51;;;;;;;59.57;29.53;;;;;;;;;;5066022;28;20197;-75
2021/12/12 07:12:22;;;;;;;54.53;30.03;;;;;;;;;;5068115;28;20699;-76
2021/12/12 07:14:47;;;;;;;64.93;31.13;;;;;;;;;;5054884;28;20260;-76
2021/12/12 07:17:12;;;;;;;60.93;30.73;;;;;;;;;;5062762;28;20276;-75
2021/12/12 07:19:38;;;;;;;58.40;31.17;;;;;;;;;;5070769;28;20177;-76
2021/12/12 07:22:03;;;;;;;64.00;29.57;;;;;;;;;;5057811;28;20578;-75
2021/12/12 07:24:29;;;;;;;59.97;30.80;;;;;;;;;;5066408;28;20467;-76
2021/12/12 07:26:54;;;;;;;56.23;30.60;;;;;;;;;;5058600;28;20247;-75
2021/12/12 07:29:20;;;;;;;76.30;30.83;;;;;;;;;;5053461;28;20681;-74
2021/12/12 07:31:45;;;;;;;65.10;31.37;;;;;;;;;;5067210;28;20240;-76
2021/12/12 07:34:12;;;;;;;64.57;30.83;;;;;;;;;;5071579;28;20256;-75
2021/12/12 07:36:40;;;;;;;65.17;30.50;;;;;;;;;;5057250;28;20695;-75
2021/12/12 07:39:10;;;;;;;65.00;28.20;;;;;;;;;;5066832;28;20268;-75
2021/12/12 07:41:37;;;;;;;69.83;30.40;;;;;;;;;;5056072;28;20689;-76
2021/12/12 07:44:04;;;;;;;71.37;31.77;;;;;;;;;;5068182;28;20180;-75
2021/12/12 07:46:30;;;;;;;67.07;30.57;;;;;;;;;;5068959;28;20181;-76
2021/12/12 07:48:55;;;;;;;68.30;29.57;;;;;;;;;;5053979;28;20205;-75
2021/12/12 07:51:21;;;;;;;69.10;31.03;;;;;;;;;;5077616;28;20189;-74
2021/12/12 07:53:52;;;;;;;67.80;30.87;;;;;;;;;;5064429;28;20177;-75
2021/12/12 07:56:17;;;;;;;77.90;31.10;;;;;;;;;;5058765;28;20200;-76
2021/12/12 07:58:42;;;;;;;72.13;31.43;;;;;;;;;;5052855;28;20220;-76
2021/12/12 08:01:08;;;;;;;62.70;30.67;;;;;;;;;;5072099;28;20609;-76
2021/12/12 08:03:35;;;;;;;72.50;33.27;;;;;;;;;;5053029;28;20164;-76
2021/12/12 08:06:00;;;;;;;77.87;30.97;;;;;;;;;;5071253;28;20410;-76
2021/12/12 08:08:26;;;;;;;64.00;31.03;;;;;;;;;;5076801;28;20542;-76
2021/12/12 08:10:52;;;;;;;71.60;32.23;;;;;;;;;;5070857;28;20206;-76
2021/12/12 08:13:18;;;;;;;70.57;29.83;;;;;;;;;;5052451;28;20196;-77
2021/12/12 08:15:44;;;;;;;70.97;33.27;;;;;;;;;;5082981;28;20174;-77
2021/12/12 08:18:10;;;;;;;67.87;31.17;;;;;;;;;;5056727;28;20177;-77
2021/12/12 08:20:35;;;;;;;70.83;31.70;;;;;;;;;;5058432;28;20310;-76
2021/12/12 08:23:01;;;;;;;77.10;31.97;;;;;;;;;;5074447;28;20276;-76
2021/12/12 08:25:27;;;;;;;70.47;30.63;;;;;;;;;;5077331;28;20268;-76
2021/12/12 08:27:57;;;;;;;63.37;31.33;;;;;;;;;;5080214;28;20237;-76
2021/12/12 08:30:22;;;;;;;68.30;30.47;;;;;;;;;;5080953;28;20279;-75
2021/12/12 08:32:48;;;;;;;62.60;28.17;;;;;;;;;;5064090;22;20324;-72
2021/12/12 08:35:14;;;;;;;63.10;29.70;;;;;;;;;;5055483;28;20185;-72
2021/12/12 08:37:41;;;;;;;64.13;29.53;;;;;;;;;;5053139;28;20185;-73
2021/12/12 08:40:07;;;;;;;63.63;30.50;;;;;;;;;;5053506;28;20192;-72
2021/12/12 08:42:32;;;;;;;69.17;27.93;;;;;;;;;;5053983;28;20193;-72
2021/12/12 08:44:58;;;;;;;74.83;30.43;;;;;;;;;;5053397;28;20180;-73
2021/12/12 08:47:23;;;;;;;73.00;31.03;;;;;;;;;;5054185;28;20248;-72
2021/12/12 08:49:49;;;;;;;67.10;28.63;;;;;;;;;;5052985;28;20630;-72
2021/12/12 08:52:17;;;;;;;63.10;29.57;;;;;;;;;;5052043;28;20202;-72
2021/12/12 08:54:44;;;;;;;65.40;29.00;;;;;;;;;;5050801;28;20197;-73
2021/12/12 08:57:13;;;;;;;66.53;31.73;;;;;;;;;;5050273;28;20232;-72
2021/12/12 08:59:40;;;;;;;60.43;28.77;;;;;;;;;;5067980;28;20192;-73
2021/12/12 09:02:10;;;;;;;68.57;28.87;;;;;;;;;;5061646;28;20208;-72
2021/12/12 09:04:38;;;;;;;60.73;28.53;;;;;;;;;;5050375;28;20201;-72
2021/12/12 09:07:13;;;;;;;69.50;29.70;;;;;;;;;;5053800;28;20542;-73
2021/12/12 09:09:44;;;;;;;64.03;27.30;;;;;;;;;;5044307;28;20223;-72
2021/12/12 09:12:18;;;;;;;56.13;28.90;;;;;;;;;;5051078;28;20280;-73
2021/12/12 09:14:47;;;;;;;58.47;26.43;;;;;;;;;;5051495;28;20186;-73
2021/12/12 09:17:19;;;;;;;71.23;27.13;;;;;;;;;;5058108;28;20188;-72
2021/12/12 09:19:48;;;;;;;63.27;30.27;;;;;;;;;;5051509;28;20185;-73
2021/12/12 09:22:24;;;;;;;59.23;26.33;;;;;;;;;;5056863;28;20215;-72
2021/12/12 09:24:50;;;;;;;56.10;26.47;;;;;;;;;;5050653;28;20189;-73
2021/12/12 09:27:23;;;;;;;63.00;28.53;;;;;;;;;;5052031;28;20259;-72
2021/12/12 09:29:48;;;;;;;58.00;27.67;;;;;;;;;;5052774;28;20565;-73
2021/12/12 09:32:21;;;;;;;53.53;26.23;;;;;;;;;;5049798;28;20213;-73
2021/12/12 09:34:52;;;;;;;48.03;25.87;;;;;;;;;;5052444;28;20181;-72
2021/12/12 09:37:25;;;;;;;49.00;25.00;;;;;;;;;;5052792;28;20182;-73
2021/12/12 09:39:57;;;;;;;49.47;24.77;;;;;;;;;;5047203;28;20670;-72
2021/12/12 09:42:41;;;;;;;47.27;24.47;;;;;;;;;;5048904;28;20588;-73
2021/12/12 09:45:25;;;;;;;56.20;24.00;;;;;;;;;;5049908;28;20188;-73
2021/12/12 09:52:59;;;;;;;43.30;22.77;;;;;;;;;;5052150;28;20445;-73
2021/12/12 09:55:28;;;;;;;38.20;21.43;;;;;;;;;;5054908;28;20177;-74
2021/12/12 09:58:14;;;;;;;38.33;21.57;;;;;;;;;;5048469;28;20431;-72
2021/12/12 10:00:58;;;;;;;34.40;20.00;;;;;;;;;;5043638;28;20196;-72
2021/12/12 10:03:23;;;;;;;33.33;19.80;;;;;;;;;;5054438;28;20722;-73
2021/12/12 10:06:00;;;;;;;32.60;19.08;;;;;;;;;;5057621;28;20177;-72
2021/12/12 10:08:52;;;;;;;30.90;19.80;;;;;;;;;;5049093;28;20181;-72
2021/12/12 10:11:29;;;;;;;35.07;20.87;;;;;;;;;;5059862;28;20181;-73
2021/12/12 10:13:57;;;;;;;37.70;21.87;;;;;;;;;;5065469;28;20258;-73
2021/12/12 10:16:37;;;;;;;38.80;22.67;;;;;;;;;;5058353;28;20173;-72
2021/12/12 10:19:18;;;;;;;36.30;20.17;;;;;;;;;;5050354;28;20647;-72
2021/12/12 10:21:43;;;;;;;38.47;20.17;;;;;;;;;;5056183;28;20231;-73
2021/12/12 10:24:08;;;;;;;41.70;22.93;;;;;;;;;;5054876;28;20177;-73
2021/12/12 10:26:37;;;;;;;35.30;21.95;;;;;;;;;;5051959;28;20457;-74
2021/12/12 10:29:06;;;;;;;34.00;20.33;;;;;;;;;;5050556;28;20243;-74
2021/12/12 10:31:39;;;;;;;37.27;20.20;;;;;;;;;;5056923;28;20636;-73
2021/12/12 10:34:07;;;;;;;30.37;19.77;;;;;;;;;;5050880;28;20193;-73
2021/12/12 10:36:39;;;;;;;33.93;19.77;;;;;;;;;;5042005;28;20264;-73
2021/12/12 10:39:07;;;;;;;30.77;18.87;;;;;;;;;;5055393;28;20180;-73
2021/12/12 10:41:39;;;;;;;33.00;19.63;;;;;;;;;;5043474;28;20185;-74
2021/12/12 10:44:12;;;;;;;30.03;18.07;;;;;;;;;;5057564;28;20177;-72
2021/12/12 10:46:54;;;;;;;28.40;17.70;;;;;;;;;;5047175;28;20189;-73
2021/12/12 10:49:38;;;;;;;30.10;18.00;;;;;;;;;;5054804;28;20772;-74
2021/12/12 10:52:06;;;;;;;25.50;16.83;;;;;;;;;;5057607;28;20201;-73
2021/12/12 10:54:39;;;;;;;27.60;17.13;;;;;;;;;;5058785;28;20182;-73
2021/12/12 10:57:08;;;;;;;26.00;16.80;;;;;;;;;;5054288;28;20188;-74
2021/12/12 10:59:35;;;;;;;29.40;16.53;;;;;;;;;;5051688;28;20238;-72
2021/12/12 11:02:03;;;;;;;31.40;18.27;;;;;;;;;;5055703;28;20216;-73
2021/12/12 11:04:28;;;;;;;28.57;17.10;;;;;;;;;;5051479;28;20753;-73
2021/12/12 11:07:00;;;;;;;24.57;16.83;;;;;;;;;;5054208;28;20193;-73
2021/12/12 11:09:25;;;;;;;24.87;16.47;;;;;;;;;;5053340;28;20201;-72
2021/12/12 11:12:10;;;;;;;26.17;17.33;;;;;;;;;;5056933;28;20224;-74
2021/12/12 11:14:38;;;;;;;23.73;17.70;;;;;;;;;;5052232;28;20538;-73
2021/12/12 11:17:08;;;;;;;27.27;17.00;;;;;;;;;;5056185;28;20176;-73
2021/12/12 11:19:42;;;;;;;22.50;15.77;;;;;;;;;;5051984;28;20169;-72
2021/12/12 11:22:12;;;;;;;27.83;16.73;;;;;;;;;;5050077;28;20201;-73
2021/12/12 11:24:40;;;;;;;23.30;15.87;;;;;;;;;;5049188;28;20173;-72
2021/12/12 11:27:28;;;;;;;24.80;15.87;;;;;;;;;;5058797;28;20188;-72
2021/12/12 11:30:00;;;;;;;25.17;16.37;;;;;;;;;;5051433;28;20240;-73
2021/12/12 11:32:27;;;;;;;24.50;16.23;;;;;;;;;;5057406;28;20704;-73
2021/12/12 11:34:53;;;;;;;21.80;15.30;;;;;;;;;;5057330;28;20223;-72
2021/12/12 11:37:28;;;;;;;22.83;15.87;;;;;;;;;;5058717;28;20280;-73
2021/12/12 11:39:55;;;;;;;22.07;16.50;;;;;;;;;;5052303;28;20691;-73
2021/12/12 11:42:26;;;;;;;22.13;15.03;;;;;;;;;;5051522;28;20335;-72
2021/12/12 11:44:54;;;;;;;21.70;14.80;;;;;;;;;;5052987;28;20185;-73
2021/12/12 11:47:26;;;;;;;21.87;14.67;;;;;;;;;;5049664;28;20174;-73
2021/12/12 11:49:56;;;;;;;19.27;13.97;;;;;;;;;;5053300;28;20193;-73
2021/12/12 11:52:35;;;;;;;20.27;13.27;;;;;;;;;;5052522;28;20752;-73
2021/12/12 11:55:04;;;;;;;18.63;12.83;;;;;;;;;;5053116;28;20180;-73
2021/12/12 11:57:31;;;;;;;20.40;14.00;;;;;;;;;;5064459;28;20197;-73
2021/12/12 11:59:58;;;;;;;19.13;13.43;;;;;;;;;;5062827;28;20186;-74
2021/12/12 12:02:42;;;;;;;22.20;13.53;;;;;;;;;;5054921;28;20284;-73
2021/12/12 12:05:14;;;;;;;18.07;12.70;;;;;;;;;;5052844;28;20186;-73
2021/12/12 12:07:39;;;;;;;21.17;13.47;;;;;;;;;;5054253;28;20288;-73
2021/12/12 12:10:11;;;;;;;21.83;14.50;;;;;;;;;;5060712;28;20233;-72
2021/12/12 12:12:40;;;;;;;17.93;13.17;;;;;;;;;;5051166;28;20485;-73
2021/12/12 12:15:11;;;;;;;18.93;14.23;;;;;;;;;;5059516;28;20757;-73
2021/12/12 12:17:55;;;;;;;18.67;13.07;;;;;;;;;;5050095;28;20178;-73
2021/12/12 12:20:23;;;;;;;18.27;13.57;;;;;;;;;;5062540;28;20184;-74
2021/12/12 12:22:52;;;;;;;21.37;13.43;;;;;;;;;;5050936;28;20205;-72
2021/12/12 12:28:24;;;;;;;17.97;12.07;;;;;;;;;;5056992;28;20838;-72
2021/12/12 12:30:52;;;;;;;15.93;11.23;;;;;;;;;;5052396;28;20224;-72
2021/12/12 12:33:24;;;;;;;16.50;11.13;;;;;;;;;;5056105;28;20658;-72
2021/12/12 12:36:21;;;;;;;16.10;10.60;;;;;;;;;;5053768;28;20558;-73
2021/12/12 12:39:06;;;;;;;15.17;10.67;;;;;;;;;;5047236;28;20267;-73
2021/12/12 12:41:50;;;;;;;14.43;10.73;;;;;;;;;;5053462;28;20615;-73
2021/12/12 12:44:34;;;;;;;15.27;11.53;;;;;;;;;;5054545;28;20173;-74
2021/12/12 12:47:12;;;;;;;17.27;12.93;;;;;;;;;;5054132;28;20262;-73
2021/12/12 12:49:55;;;;;;;15.67;10.67;;;;;;;;;;5047052;28;20283;-74
2021/12/12 12:52:28;;;;;;;14.33;11.17;;;;;;;;;;5054618;28;20197;-73
2021/12/12 12:54:59;;;;;;;15.23;11.43;;;;;;;;;;5053354;28;20217;-73
2021/12/12 12:57:37;;;;;;;13.77;10.90;;;;;;;;;;5057847;28;20180;-74
2021/12/12 13:00:08;;;;;;;14.30;10.90;;;;;;;;;;5055642;28;20181;-73
2021/12/12 13:02:57;;;;;;;13.30;10.60;;;;;;;;;;5050816;28;20198;-73
2021/12/12 13:05:40;;;;;;;15.53;10.90;;;;;;;;;;5056553;28;20254;-72
2021/12/12 13:08:24;;;;;;;13.63;9.57;;;;;;;;;;5050557;28;20647;-73
2021/12/12 13:10:51;;;;;;;14.07;9.90;;;;;;;;;;5045596;28;20652;-73
2021/12/12 13:13:30;;;;;;;11.77;9.17;;;;;;;;;;5055559;28;20616;-74
2021/12/12 13:16:10;;;;;;;11.73;8.90;;;;;;;;;;5052837;28;20177;-73
2021/12/12 13:18:54;;;;;;;13.30;9.17;;;;;;;;;;5049552;28;20181;-74
2021/12/12 13:21:25;;;;;;;12.17;8.73;;;;;;;;;;5049169;28;20178;-73
2021/12/12 13:23:53;;;;;;;13.03;8.73;;;;;;;;;;5058247;28;20216;-73
2021/12/12 13:26:30;;;;;;;11.90;8.03;;;;;;;;;;5063652;28;20594;-73
2021/12/12 13:29:14;;;;;;;13.47;8.77;;;;;;;;;;5052680;28;20662;-74
2021/12/12 13:31:41;;;;;;;11.17;9.13;;;;;;;;;;5054103;28;20189;-73
2021/12/12 13:34:24;;;;;;;11.33;8.73;;;;;;;;;;5051577;28;20189;-73
2021/12/12 13:36:55;;;;;;;16.47;10.30;;;;;;;;;;5050802;28;20173;-73
2021/12/12 13:39:24;;;;;;;15.83;9.80;;;;;;;;;;5052792;28;20669;-73
2021/12/12 13:42:27;;;;;;;14.37;10.73;;;;;;;;;;5049291;28;20261;-73
2021/12/12 13:45:17;;;;;;;15.13;10.73;;;;;;;;;;4987909;28;20222;-73
2021/12/12 13:47:45;;;;;;;18.17;11.80;;;;;;;;;;4989419;28;20302;-73
2021/12/12 13:50:16;;;;;;;15.00;10.27;;;;;;;;;;5028684;28;20209;-74
2021/12/12 13:52:54;;;;;;;16.33;10.47;;;;;;;;;;5046763;28;20197;-73
2021/12/12 13:55:31;;;;;;;15.70;10.37;;;;;;;;;;5058695;28;20177;-73
2021/12/12 13:57:59;;;;;;;14.57;11.57;;;;;;;;;;5050845;28;20251;-73
2021/12/12 14:00:26;;;;;;;17.10;11.27;;;;;;;;;;5053130;28;20169;-73
2021/12/12 14:02:57;;;;;;;17.10;12.33;;;;;;;;;;5050903;28;20561;-73
2021/12/12 14:05:32;;;;;;;19.43;11.77;;;;;;;;;;5048447;28;20540;-73
2021/12/12 14:08:06;;;;;;;21.50;12.80;;;;;;;;;;5052933;28;20185;-74
2021/12/12 14:10:35;;;;;;;14.87;10.97;;;;;;;;;;5052028;28;20646;-74
2021/12/12 14:13:03;;;;;;;17.77;11.47;;;;;;;;;;5053238;28;20281;-74
2021/12/12 14:15:30;;;;;;;18.17;12.40;;;;;;;;;;5052639;28;20260;-74
2021/12/12 14:17:57;;;;;;;24.83;12.10;;;;;;;;;;5052102;28;20192;-73
2021/12/12 14:20:33;;;;;;;24.07;13.80;;;;;;;;;;5058302;28;20169;-73
2021/12/12 14:23:00;;;;;;;22.47;12.37;;;;;;;;;;5057101;28;20201;-72
2021/12/12 14:25:26;;;;;;;19.40;12.93;;;;;;;;;;5057320;28;20185;-72
2021/12/12 14:27:53;;;;;;;25.97;13.73;;;;;;;;;;5058218;28;20185;-73
2021/12/12 14:30:20;;;;;;;22.83;13.70;;;;;;;;;;5054316;28;20678;-72
2021/12/12 14:32:56;;;;;;;24.87;13.53;;;;;;;;;;5072756;22;20236;-78
2021/12/12 14:35:22;;;;;;;20.57;13.80;;;;;;;;;;5081224;28;20177;-79
2021/12/12 14:37:50;;;;;;;25.37;12.77;;;;;;;;;;5083193;28;20176;-78
2021/12/12 14:40:21;;;;;;;23.77;13.37;;;;;;;;;;5086831;28;20196;-80
2021/12/12 14:42:50;;;;;;;22.20;14.60;;;;;;;;;;5080225;28;20223;-79
2021/12/12 14:45:18;;;;;;;21.07;12.97;;;;;;;;;;5082163;28;20230;-79
2021/12/12 14:47:46;;;;;;;23.00;14.33;;;;;;;;;;5087018;28;20189;-79
2021/12/12 14:50:11;;;;;;;28.13;15.63;;;;;;;;;;5084423;28;20213;-79
2021/12/12 14:52:37;;;;;;;19.93;12.63;;;;;;;;;;5091494;28;20275;-78
2021/12/12 14:55:09;;;;;;;21.00;13.50;;;;;;;;;;5077577;28;20208;-79
2021/12/12 14:57:36;;;;;;;26.20;13.30;;;;;;;;;;5052973;28;20579;-79